Davis, California
Current Conditions -  °F | °C
As of 10:40 PM on Wednesday 28 Jan 2015 (Local Time) from KEDU Reporting Station
Clear Clear  
Wind Chill: 54°   Ceiling: Unl
Heat Index: 54°   Visibility: 10mi
Dew Point: 46°   Wind: 8mph
Humidity: 77%   Direction: 150°SSE
Pressure: 30.17"   Gusts: NA
Location:  38.55°N, 121.74°W
Report Text: KEDU 290640Z AUTO 15007KT 10SM CLR 12/08 A3017 RMK AO1
Loading
Personal Weather Stations






























Interactive Weather Map New forecast layout! Learn more

10-Day Weather Forecast

Advertisements
Track Severe Weather on mobile